Time;durP1;ratioP1;P1;durP2;ratioP2;P2;SDS_P1;SDS_P2;PMS_P1;PMS_P2;Temp;Humidity;BMP_temperature;BMP_pressure;BME280_temperature;BME280_humidity;BME280_pressure;Samples;Min_cycle;Max_cycle;Signal;HPM_P1;HPM_P2
2022/11/04 06:00:11;;;;;;;2.07;1.37;;;11.10;97.20;;;;;;1687611;29;20367;-70
2022/11/04 06:01:21;;;;;;;1.77;1.00;;;11.10;97.20;;;;;;1687786;29;20205;-70
2022/11/04 06:02:12;;;;;;;1.83;1.35;;;11.10;97.20;;;;;;1687829;29;20596;-70
2022/11/04 06:03:03;;;;;;;2.85;1.10;;;11.10;97.20;;;;;;1687829;29;20268;-70
2022/11/04 06:03:56;;;;;;;1.77;1.10;;;11.10;97.20;;;;;;1687483;29;20288;-70
2022/11/04 06:04:47;;;;;;;1.20;1.00;;;11.10;97.20;;;;;;1687726;29;20201;-69
2022/11/04 06:05:38;;;;;;;1.70;1.10;;;11.10;97.20;;;;;;1687711;29;20219;-70
2022/11/04 06:06:32;;;;;;;1.92;1.00;;;11.10;97.20;;;;;;1687700;29;20204;-70
2022/11/04 06:07:23;;;;;;;3.10;1.38;;;11.10;97.20;;;;;;1687636;29;20228;-70
2022/11/04 06:08:14;;;;;;;1.40;1.10;;;11.10;97.20;;;;;;1687676;29;20671;-70
2022/11/04 06:09:06;;;;;;;1.33;1.10;;;11.10;97.20;;;;;;1687738;29;20580;-70
2022/11/04 06:09:57;;;;;;;1.52;1.20;;;11.10;97.20;;;;;;1687401;29;20227;-70
2022/11/04 06:10:48;;;;;;;2.97;1.30;;;11.10;97.20;;;;;;1687667;29;20274;-70
2022/11/04 06:11:39;;;;;;;1.83;1.40;;;11.10;97.20;;;;;;1687658;29;20208;-70
2022/11/04 06:12:31;;;;;;;2.70;1.30;;;11.10;97.20;;;;;;1687633;29;20663;-70
2022/11/04 06:13:22;;;;;;;2.40;1.20;;;11.10;97.20;;;;;;1687776;29;20209;-70
2022/11/04 06:14:13;;;;;;;3.50;1.53;;;11.10;97.20;;;;;;1687381;29;20291;-70
2022/11/04 06:15:05;;;;;;;1.58;1.30;;;11.10;97.20;;;;;;1687377;29;20452;-70
2022/11/04 06:15:58;;;;;;;1.35;1.25;;;11.00;97.20;;;;;;1687683;29;20239;-71
2022/11/04 06:16:49;;;;;;;2.28;1.30;;;11.00;97.20;;;;;;1687584;29;20205;-69
2022/11/04 06:17:41;;;;;;;1.60;1.13;;;11.00;97.20;;;;;;1687829;29;20193;-70
2022/11/04 06:18:31;;;;;;;1.60;1.40;;;11.00;97.20;;;;;;1687576;29;20205;-70
2022/11/04 06:19:23;;;;;;;2.63;1.10;;;11.00;97.20;;;;;;1687588;29;20196;-70
2022/11/04 06:20:15;;;;;;;2.85;1.20;;;11.00;97.20;;;;;;1687068;29;20205;-70
2022/11/04 06:21:20;;;;;;;4.70;1.20;;;11.00;97.20;;;;;;1687699;29;20208;-70
2022/11/04 06:22:11;;;;;;;1.67;1.30;;;11.00;97.20;;;;;;1687687;29;20215;-70
2022/11/04 06:23:03;;;;;;;2.15;1.30;;;11.00;97.20;;;;;;1687746;29;20204;-70
2022/11/04 06:23:56;;;;;;;2.13;2.03;;;11.00;97.20;;;;;;1687431;29;20271;-70
2022/11/04 06:24:47;;;;;;;5.50;5.00;;;10.90;97.20;;;;;;1681262;29;20610;-70
2022/11/04 06:25:38;;;;;;;5.65;5.00;;;10.90;97.20;;;;;;1681423;29;20208;-70
2022/11/04 06:26:30;;;;;;;6.50;5.00;;;10.90;97.20;;;;;;1682554;29;20219;-70
2022/11/04 06:27:21;;;;;;;5.13;4.65;;;10.90;97.20;;;;;;1682486;29;20624;-73
2022/11/04 06:28:13;;;;;;;4.07;3.67;;;10.90;97.20;;;;;;1682542;29;20231;-70
2022/11/04 06:29:03;;;;;;;4.22;3.80;;;10.90;97.20;;;;;;1682662;29;20687;-71
2022/11/04 06:29:55;;;;;;;3.90;3.57;;;10.80;97.20;;;;;;1682525;29;20592;-70
2022/11/04 06:30:46;;;;;;;3.38;3.08;;;10.80;97.20;;;;;;1681781;29;20719;-70
2022/11/04 06:31:39;;;;;;;3.10;2.77;;;10.80;97.20;;;;;;1676162;29;20686;-70
2022/11/04 06:32:30;;;;;;;2.30;2.05;;;10.80;97.20;;;;;;1676074;29;20210;-70
2022/11/04 06:33:22;;;;;;;2.42;1.90;;;10.80;97.20;;;;;;1676109;29;20208;-70
2022/11/04 06:34:13;;;;;;;2.20;1.63;;;10.80;97.20;;;;;;1675646;29;20210;-69
2022/11/04 06:35:07;;;;;;;2.10;2.00;;;10.80;97.20;;;;;;1676007;29;20209;-70
2022/11/04 06:35:59;;;;;;;4.35;1.60;;;10.80;97.20;;;;;;1675946;29;20281;-70
2022/11/04 06:36:51;;;;;;;3.08;1.30;;;10.80;97.20;;;;;;1676029;29;20213;-70
2022/11/04 06:37:42;;;;;;;3.00;1.42;;;10.80;97.20;;;;;;1676105;29;20206;-70
2022/11/04 06:38:35;;;;;;;1.40;1.13;;;10.80;97.20;;;;;;1676106;29;20213;-70
2022/11/04 06:39:26;;;;;;;1.65;1.10;;;10.80;97.20;;;;;;1676058;29;20691;-69
2022/11/04 06:40:17;;;;;;;2.30;1.10;;;10.70;97.20;;;;;;1675775;29;20595;-70
2022/11/04 06:41:11;;;;;;;5.32;1.67;;;10.70;97.20;;;;;;1676038;29;20212;-69
2022/11/04 06:42:04;;;;;;;1.85;1.10;;;10.70;97.20;;;;;;1675931;29;20206;-69
2022/11/04 06:42:54;;;;;;;3.00;1.55;;;10.70;97.20;;;;;;1676198;29;20696;-69
2022/11/04 06:43:46;;;;;;;2.63;1.57;;;10.70;97.20;;;;;;1676047;29;20707;-69
2022/11/04 06:44:37;;;;;;;2.40;1.65;;;10.70;97.20;;;;;;1675774;29;20210;-69
2022/11/04 06:45:28;;;;;;;3.67;2.40;;;10.70;97.20;;;;;;1675990;29;20229;-70
2022/11/04 06:46:29;;;;;;;2.95;2.00;;;10.70;97.20;;;;;;1676107;29;20592;-70
2022/11/04 06:47:22;;;;;;;2.92;1.67;;;10.70;97.20;;;;;;1676049;29;20262;-69
2022/11/04 06:48:13;;;;;;;2.35;1.48;;;10.70;97.20;;;;;;1676028;29;20217;-69
2022/11/04 06:49:06;;;;;;;2.03;1.93;;;10.70;97.20;;;;;;1676028;29;20212;-69
2022/11/04 06:49:57;;;;;;;1.67;1.48;;;10.70;97.20;;;;;;1676022;29;20225;-69
2022/11/04 06:50:49;;;;;;;3.00;2.20;;;10.70;97.20;;;;;;1675708;29;20700;-70
2022/11/04 06:51:40;;;;;;;2.00;1.80;;;10.70;97.20;;;;;;1676007;29;20206;-69
2022/11/04 06:52:32;;;;;;;1.98;1.50;;;10.70;97.20;;;;;;1676001;29;20230;-70
2022/11/04 06:53:22;;;;;;;1.98;1.38;;;10.70;97.20;;;;;;1676035;29;20206;-69
2022/11/04 06:54:15;;;;;;;2.50;1.67;;;10.80;97.20;;;;;;1675725;29;20212;-69
2022/11/04 06:55:07;;;;;;;2.08;1.50;;;10.70;97.20;;;;;;1675948;29;20206;-69
2022/11/04 06:56:04;;;;;;;1.58;1.45;;;10.80;97.20;;;;;;1675916;29;20564;-70
2022/11/04 06:56:55;;;;;;;2.50;1.88;;;10.80;97.20;;;;;;1675929;29;20689;-70
2022/11/04 06:57:47;;;;;;;2.57;2.10;;;10.80;97.20;;;;;;1675710;29;20566;-71
2022/11/04 06:58:38;;;;;;;3.20;1.55;;;10.80;97.20;;;;;;1672507;29;20249;-70
2022/11/04 06:59:29;;;;;;;1.57;1.33;;;10.80;97.20;;;;;;1674538;29;20229;-70
2022/11/04 07:00:20;;;;;;;1.52;1.30;;;10.80;97.20;;;;;;1675191;29;20225;-70
2022/11/04 07:01:12;;;;;;;3.50;2.80;;;10.80;97.20;;;;;;1675238;29;20201;-71
2022/11/04 07:02:03;;;;;;;3.20;2.88;;;10.80;97.20;;;;;;1675594;29;20454;-71
2022/11/04 07:02:56;;;;;;;2.10;1.67;;;10.80;97.20;;;;;;1675447;29;20216;-70
2022/11/04 07:03:48;;;;;;;2.38;1.70;;;10.80;97.20;;;;;;1675557;29;20222;-71
2022/11/04 07:04:40;;;;;;;2.00;1.70;;;10.80;97.20;;;;;;1675209;29;20213;-70
2022/11/04 07:05:32;;;;;;;3.72;2.53;;;10.80;97.20;;;;;;1675552;29;20228;-70
2022/11/04 07:06:24;;;;;;;1.63;1.52;;;10.80;97.20;;;;;;1675642;29;20217;-70
2022/11/04 07:07:14;;;;;;;1.80;1.50;;;10.80;97.20;;;;;;1675550;29;20217;-71
2022/11/04 07:08:06;;;;;;;2.00;1.50;;;10.80;97.20;;;;;;1675170;29;20229;-71
2022/11/04 07:08:58;;;;;;;1.70;1.60;;;10.80;97.20;;;;;;1675469;29;20217;-70
2022/11/04 07:09:50;;;;;;;1.85;1.73;;;10.80;97.20;;;;;;1675455;29;20672;-69
2022/11/04 07:10:41;;;;;;;3.13;2.10;;;10.80;97.20;;;;;;1673050;29;20226;-70
2022/11/04 07:11:33;;;;;;;2.73;1.50;;;10.80;97.20;;;;;;1675475;29;20198;-70
2022/11/04 07:12:24;;;;;;;2.60;1.70;;;10.80;97.20;;;;;;1675562;29;20450;-70
2022/11/04 07:13:16;;;;;;;2.07;1.87;;;10.80;97.20;;;;;;1675449;29;20699;-69
2022/11/04 07:14:07;;;;;;;3.55;2.35;;;10.80;97.20;;;;;;1675245;29;20965;-69
2022/11/04 07:14:59;;;;;;;3.10;1.73;;;10.80;97.20;;;;;;1675231;29;20265;-70
2022/11/04 07:15:50;;;;;;;2.17;1.45;;;10.80;97.20;;;;;;1675256;29;20210;-70
2022/11/04 07:16:42;;;;;;;2.30;1.57;;;10.80;97.20;;;;;;1675519;29;20224;-69
2022/11/04 07:17:33;;;;;;;1.83;1.40;;;10.80;97.20;;;;;;1675320;29;20232;-70
2022/11/04 07:18:26;;;;;;;2.20;1.50;;;10.90;97.20;;;;;;1675654;29;20719;-69
2022/11/04 07:19:17;;;;;;;1.90;1.50;;;10.90;97.20;;;;;;1675419;29;20209;-69
2022/11/04 07:20:12;;;;;;;2.43;1.60;;;10.90;97.20;;;;;;1675801;29;20293;-70
2022/11/04 07:21:03;;;;;;;1.80;1.40;;;10.90;97.20;;;;;;1672976;29;20487;-70
2022/11/04 07:21:55;;;;;;;2.13;1.65;;;10.90;97.20;;;;;;1675384;29;20293;-69
2022/11/04 07:22:46;;;;;;;2.47;1.40;;;10.90;97.20;;;;;;1675619;29;20712;-69
2022/11/04 07:23:38;;;;;;;2.90;1.80;;;10.90;97.20;;;;;;1671522;29;20750;-71
2022/11/04 07:24:28;;;;;;;3.25;1.88;;;11.00;97.20;;;;;;1673237;29;20548;-70
2022/11/04 07:25:21;;;;;;;2.97;1.90;;;11.00;97.20;;;;;;1675009;29;20631;-70
2022/11/04 07:26:11;;;;;;;2.10;1.80;;;10.90;97.20;;;;;;1676089;29;20734;-71
2022/11/04 07:27:05;;;;;;;2.40;2.20;;;11.00;97.20;;;;;;1675327;29;20665;-71
2022/11/04 07:27:56;;;;;;;2.90;2.10;;;11.00;97.20;;;;;;1675146;29;20546;-70
2022/11/04 07:28:48;;;;;;;2.20;2.00;;;11.00;97.20;;;;;;1675437;29;20221;-71
2022/11/04 07:29:40;;;;;;;5.55;2.50;;;11.00;97.20;;;;;;1675457;29;20462;-70
2022/11/04 07:30:32;;;;;;;2.47;2.27;;;11.00;97.20;;;;;;1674626;29;20230;-71
2022/11/04 07:31:24;;;;;;;8.35;1.80;;;11.00;97.20;;;;;;1668947;29;20979;-71
2022/11/04 07:32:16;;;;;;;2.38;2.03;;;11.00;97.20;;;;;;1669099;29;20213;-71
2022/11/04 07:33:07;;;;;;;2.70;2.25;;;11.00;97.20;;;;;;1669265;29;20206;-71
2022/11/04 07:34:01;;;;;;;2.67;2.05;;;11.00;97.20;;;;;;1668087;29;20275;-70
2022/11/04 07:34:52;;;;;;;3.00;2.40;;;11.00;97.20;;;;;;1669083;29;20211;-70
2022/11/04 07:35:44;;;;;;;2.77;2.30;;;11.00;97.20;;;;;;1668845;29;20269;-71
2022/11/04 07:36:35;;;;;;;2.28;2.05;;;11.00;97.20;;;;;;1668965;29;20246;-71
2022/11/04 07:37:27;;;;;;;3.37;2.20;;;11.00;97.20;;;;;;1667635;29;20207;-70
2022/11/04 07:38:18;;;;;;;3.05;2.22;;;11.00;97.20;;;;;;1669117;29;20448;-70
2022/11/04 07:39:10;;;;;;;2.08;1.65;;;11.00;97.20;;;;;;1669205;29;20214;-71
2022/11/04 07:40:01;;;;;;;4.50;1.80;;;11.00;97.20;;;;;;1669028;29;20210;-71
2022/11/04 07:40:53;;;;;;;1.85;1.40;;;11.00;97.20;;;;;;1668033;29;20227;-70
2022/11/04 07:41:44;;;;;;;1.80;1.70;;;11.00;97.20;;;;;;1669157;29;21152;-69
2022/11/04 07:42:36;;;;;;;2.80;2.40;;;11.00;97.20;;;;;;1673143;29;20281;-71
2022/11/04 07:43:28;;;;;;;2.50;2.30;;;11.00;97.20;;;;;;1675386;29;20209;-71
2022/11/04 07:44:21;;;;;;;2.70;2.45;;;11.00;97.20;;;;;;1674921;29;20236;-72
2022/11/04 07:45:12;;;;;;;3.08;2.50;;;11.00;97.20;;;;;;1675057;29;20210;-71
2022/11/04 07:46:06;;;;;;;2.80;2.10;;;11.10;97.20;;;;;;1675310;29;20209;-71
2022/11/04 07:46:57;;;;;;;2.63;2.40;;;11.10;97.20;;;;;;1675208;29;20455;-71
2022/11/04 07:47:48;;;;;;;2.80;2.57;;;11.10;97.20;;;;;;1671956;29;20206;-72
2022/11/04 07:48:39;;;;;;;2.67;2.20;;;11.10;97.20;;;;;;1669111;29;20210;-72
2022/11/04 07:49:32;;;;;;;2.50;2.30;;;11.10;97.20;;;;;;1669086;29;20206;-71
2022/11/04 07:50:23;;;;;;;5.20;2.72;;;11.10;97.20;;;;;;1668653;29;20218;-72
2022/11/04 07:51:17;;;;;;;3.27;2.73;;;11.10;97.20;;;;;;1668546;29;20203;-71
2022/11/04 07:52:08;;;;;;;4.60;2.80;;;11.10;97.20;;;;;;1662650;29;20460;-72
2022/11/04 07:53:00;;;;;;;3.57;3.27;;;11.10;97.20;;;;;;1668287;29;20290;-72
2022/11/04 07:53:51;;;;;;;3.88;3.22;;;11.10;97.20;;;;;;1668381;29;20404;-72
2022/11/04 07:54:43;;;;;;;4.45;3.80;;;11.10;97.20;;;;;;1668980;29;20206;-71
2022/11/04 07:55:36;;;;;;;3.38;3.08;;;11.10;97.20;;;;;;1668588;29;20207;-71
2022/11/04 07:56:28;;;;;;;2.90;2.70;;;11.10;97.20;;;;;;1669031;29;20679;-71
2022/11/04 07:57:19;;;;;;;4.45;3.00;;;11.20;97.20;;;;;;1668817;29;20207;-71
2022/11/04 07:58:10;;;;;;;3.77;2.37;;;11.20;97.20;;;;;;1668567;29;20198;-71
2022/11/04 07:59:04;;;;;;;4.82;2.17;;;11.20;97.20;;;;;;1669087;29;20273;-72
2022/11/04 07:59:56;;;;;;;4.85;2.30;;;11.20;97.20;;;;;;1669067;29;20241;-71
2022/11/04 08:00:47;;;;;;;2.20;1.40;;;11.20;97.20;;;;;;1668015;29;20237;-71
2022/11/04 08:01:39;;;;;;;1.70;1.60;;;11.20;97.20;;;;;;1668714;29;20209;-71
2022/11/04 08:02:30;;;;;;;2.63;1.80;;;11.20;97.20;;;;;;1667890;29;20257;-72
2022/11/04 08:03:21;;;;;;;2.20;2.00;;;11.20;97.20;;;;;;1667917;29;20214;-72
2022/11/04 08:04:12;;;;;;;2.53;2.08;;;11.20;97.20;;;;;;1667483;29;20225;-72
2022/11/04 08:05:06;;;;;;;2.87;2.10;;;11.20;97.20;;;;;;1667933;29;20208;-72
2022/11/04 08:05:58;;;;;;;2.60;2.05;;;11.20;97.20;;;;;;1667927;29;20219;-72
2022/11/04 08:06:49;;;;;;;3.05;2.17;;;11.20;97.20;;;;;;1668677;29;20210;-72
2022/11/04 08:07:40;;;;;;;2.70;1.70;;;11.20;97.20;;;;;;1668776;29;20222;-72
2022/11/04 08:08:32;;;;;;;2.63;2.00;;;11.20;97.20;;;;;;1668985;29;20572;-73
2022/11/04 08:09:24;;;;;;;2.47;1.73;;;11.20;97.20;;;;;;1668481;29;20301;-72
2022/11/04 08:10:15;;;;;;;2.50;1.92;;;11.30;97.20;;;;;;1668547;29;20214;-72
2022/11/04 08:11:09;;;;;;;2.50;1.57;;;11.30;97.20;;;;;;1669146;29;20217;-72
2022/11/04 08:12:00;;;;;;;1.85;1.75;;;11.30;97.20;;;;;;1669178;29;20526;-72
2022/11/04 08:12:51;;;;;;;2.53;2.10;;;11.30;97.20;;;;;;1669098;29;20210;-72
2022/11/04 08:13:43;;;;;;;3.28;2.20;;;11.30;97.20;;;;;;1669204;29;20254;-72
2022/11/04 08:14:36;;;;;;;2.60;1.40;;;11.40;97.20;;;;;;1668566;29;20595;-72
2022/11/04 08:15:28;;;;;;;1.67;1.50;;;11.40;97.20;;;;;;1668940;29;20203;-72
2022/11/04 08:16:21;;;;;;;2.63;1.35;;;11.40;97.20;;;;;;1668939;29;20209;-72
2022/11/04 08:17:12;;;;;;;2.75;1.40;;;11.40;97.20;;;;;;1668149;29;20207;-72
2022/11/04 08:18:04;;;;;;;1.30;1.20;;;11.40;97.20;;;;;;1668102;29;20508;-72
2022/11/04 08:19:00;;;;;;;2.15;1.20;;;11.40;97.20;;;;;;1668497;29;20206;-72
2022/11/04 08:19:52;;;;;;;2.15;1.60;;;11.40;97.20;;;;;;1669027;29;20582;-72
2022/11/04 08:20:48;;;;;;;2.05;1.15;;;11.40;97.20;;;;;;1669060;29;20325;-72
2022/11/04 08:21:40;;;;;;;1.52;1.10;;;11.40;97.20;;;;;;1669110;29;20217;-72
2022/11/04 08:22:32;;;;;;;2.20;1.40;;;11.50;97.20;;;;;;1669103;29;20218;-71
2022/11/04 08:23:24;;;;;;;3.85;1.52;;;11.40;97.20;;;;;;1669131;29;20214;-71
2022/11/04 08:24:15;;;;;;;2.13;1.02;;;11.50;97.20;;;;;;1668505;29;20225;-72
2022/11/04 08:25:07;;;;;;;1.57;1.00;;;11.50;97.20;;;;;;1668963;29;20216;-72
2022/11/04 08:25:58;;;;;;;1.70;1.30;;;11.50;97.20;;;;;;1668963;29;20584;-72
2022/11/04 08:26:49;;;;;;;2.10;0.90;;;11.50;97.20;;;;;;1668742;29;20561;-72
2022/11/04 08:27:40;;;;;;;1.10;0.80;;;11.50;97.20;;;;;;1668742;29;20681;-72
2022/11/04 08:28:32;;;;;;;1.67;1.27;;;11.50;97.20;;;;;;1668901;29;20617;-72
2022/11/04 08:29:23;;;;;;;2.28;1.20;;;11.50;97.20;;;;;;1669064;29;20206;-72
2022/11/04 08:30:14;;;;;;;1.63;1.13;;;11.50;97.20;;;;;;1668875;29;20232;-72
2022/11/04 08:31:07;;;;;;;4.63;1.30;;;11.50;97.20;;;;;;1668883;29;20238;-72
2022/11/04 08:31:59;;;;;;;2.35;0.90;;;11.50;97.20;;;;;;1668977;29;20622;-72
2022/11/04 08:32:50;;;;;;;2.40;1.40;;;11.50;97.20;;;;;;1668915;29;20210;-72
2022/11/04 08:33:42;;;;;;;1.20;1.00;;;11.50;97.20;;;;;;1669082;29;20658;-72
2022/11/04 08:34:32;;;;;;;1.67;0.90;;;11.50;97.20;;;;;;1668476;29;20587;-72
2022/11/04 08:35:24;;;;;;;2.50;1.20;;;11.50;97.20;;;;;;1668892;29;20551;-73
2022/11/04 08:36:19;;;;;;;1.67;1.00;;;11.50;97.20;;;;;;1668949;29;20478;-72
2022/11/04 08:37:13;;;;;;;1.60;1.08;;;11.50;97.20;;;;;;1668776;29;20215;-72
2022/11/04 08:38:04;;;;;;;1.50;1.15;;;11.50;97.20;;;;;;1668727;29;20218;-71
2022/11/04 08:38:56;;;;;;;1.83;1.10;;;11.50;97.20;;;;;;1668860;29;20217;-72
2022/11/04 08:39:47;;;;;;;1.50;0.98;;;11.50;97.20;;;;;;1668926;29;20211;-73
2022/11/04 08:40:39;;;;;;;2.10;1.73;;;11.50;97.20;;;;;;1668869;29;20643;-72
2022/11/04 08:41:31;;;;;;;1.60;0.95;;;11.50;97.20;;;;;;1668865;29;20669;-72
2022/11/04 08:42:25;;;;;;;1.55;0.85;;;11.50;97.20;;;;;;1668975;29;20211;-72
2022/11/04 08:43:15;;;;;;;3.65;1.00;;;11.50;97.20;;;;;;1668921;29;20305;-72
2022/11/04 08:44:07;;;;;;;1.23;0.93;;;11.50;97.20;;;;;;1668425;29;20684;-71
2022/11/04 08:44:58;;;;;;;1.73;1.15;;;11.60;97.20;;;;;;1668879;29;20210;-72
2022/11/04 08:45:50;;;;;;;2.40;1.20;;;11.50;97.20;;;;;;1668859;29;20657;-72
2022/11/04 08:46:44;;;;;;;2.35;1.70;;;11.60;97.20;;;;;;1668704;29;20214;-72
2022/11/04 08:47:35;;;;;;;1.95;1.10;;;11.60;97.20;;;;;;1668845;29;20718;-72
2022/11/04 08:48:27;;;;;;;1.20;0.98;;;11.60;97.20;;;;;;1668245;29;20222;-71
2022/11/04 08:49:19;;;;;;;1.58;1.08;;;11.60;97.20;;;;;;1668838;29;20203;-73
2022/11/04 08:50:10;;;;;;;1.50;1.25;;;11.60;97.20;;;;;;1668897;29;20243;-72
2022/11/04 08:51:03;;;;;;;1.42;1.00;;;11.60;97.20;;;;;;1668767;29;20226;-72
2022/11/04 08:51:58;;;;;;;2.50;1.08;;;11.60;97.20;;;;;;1668888;29;20210;-72
2022/11/04 08:52:49;;;;;;;2.60;1.08;;;11.60;97.20;;;;;;1668899;29;20628;-72
2022/11/04 08:53:41;;;;;;;2.00;0.90;;;11.60;97.20;;;;;;1668854;29;20225;-72
2022/11/04 08:54:31;;;;;;;1.60;0.98;;;11.60;97.20;;;;;;1668395;29;20215;-72
2022/11/04 08:55:23;;;;;;;1.30;1.20;;;11.60;97.20;;;;;;1668744;29;20199;-72
2022/11/04 08:56:17;;;;;;;2.45;1.00;;;11.70;97.20;;;;;;1668829;29;20455;-72
2022/11/04 08:57:08;;;;;;;1.10;0.90;;;11.70;97.20;;;;;;1668596;29;20669;-72
2022/11/04 08:58:00;;;;;;;2.35;1.00;;;11.70;97.20;;;;;;1668522;29;20578;-72
2022/11/04 08:58:53;;;;;;;1.38;0.85;;;11.70;97.20;;;;;;1668935;29;20213;-72
2022/11/04 08:59:45;;;;;;;1.58;1.10;;;11.70;97.20;;;;;;1668827;29;20670;-72
2022/11/04 09:00:36;;;;;;;1.60;1.23;;;11.70;97.20;;;;;;1668701;29;20230;-72
2022/11/04 09:01:29;;;;;;;2.90;1.13;;;11.70;97.20;;;;;;1668847;29;20288;-72
2022/11/04 09:02:20;;;;;;;2.55;1.40;;;11.70;97.20;;;;;;1668790;29;20209;-72
2022/11/04 09:03:11;;;;;;;1.43;0.90;;;11.70;97.20;;;;;;1668900;29;20217;-72
2022/11/04 09:04:03;;;;;;;3.20;1.70;;;11.70;97.20;;;;;;1668448;29;20210;-72
2022/11/04 09:04:54;;;;;;;3.00;0.95;;;11.80;97.20;;;;;;1668847;29;20221;-72
2022/11/04 09:05:47;;;;;;;2.35;0.95;;;11.80;97.20;;;;;;1668617;29;20206;-72
2022/11/04 09:06:42;;;;;;;1.88;1.02;;;11.80;97.20;;;;;;1668593;29;20749;-72
2022/11/04 09:07:36;;;;;;;3.30;1.50;;;11.80;97.20;;;;;;1668707;29;20757;-72
2022/11/04 09:08:28;;;;;;;3.20;1.27;;;11.80;97.20;;;;;;1668410;29;20217;-72
2022/11/04 09:09:19;;;;;;;2.25;1.15;;;11.80;97.20;;;;;;1668867;29;20206;-72
2022/11/04 09:10:11;;;;;;;1.65;1.08;;;11.80;97.20;;;;;;1668834;29;20213;-72
2022/11/04 09:11:05;;;;;;;2.95;1.35;;;11.80;97.20;;;;;;1668860;29;20595;-72
2022/11/04 09:11:57;;;;;;;1.80;1.02;;;11.80;97.20;;;;;;1668724;29;20740;-72
2022/11/04 09:12:48;;;;;;;2.70;1.10;;;11.80;97.20;;;;;;1668695;29;20214;-72
2022/11/04 09:13:40;;;;;;;2.03;1.10;;;11.80;97.20;;;;;;1668799;29;20211;-72
2022/11/04 09:14:30;;;;;;;2.03;1.10;;;11.80;97.20;;;;;;1667958;29;20211;-72
2022/11/04 09:15:22;;;;;;;4.50;1.03;;;11.80;97.20;;;;;;1668637;29;20206;-71
2022/11/04 09:16:14;;;;;;;2.30;1.15;;;11.80;97.20;;;;;;1668666;29;20221;-72
2022/11/04 09:17:05;;;;;;;3.28;1.42;;;11.80;97.20;;;;;;1668565;29;20241;-72
2022/11/04 09:17:56;;;;;;;4.20;1.27;;;11.80;97.20;;;;;;1668745;29;20206;-72
2022/11/04 09:18:48;;;;;;;3.20;1.30;;;11.80;97.20;;;;;;1668927;29;20209;-71
2022/11/04 09:19:39;;;;;;;1.48;1.00;;;11.80;97.20;;;;;;1668689;29;20202;-72
2022/11/04 09:20:31;;;;;;;1.40;1.30;;;11.80;97.20;;;;;;1668632;29;20292;-72
2022/11/04 09:21:23;;;;;;;1.10;1.00;;;11.80;97.20;;;;;;1668740;29;20612;-72
2022/11/04 09:22:14;;;;;;;1.80;1.13;;;11.90;97.20;;;;;;1668673;29;20219;-71
2022/11/04 09:23:07;;;;;;;1.90;1.20;;;11.90;97.20;;;;;;1668793;29;20684;-71
2022/11/04 09:23:59;;;;;;;1.85;1.65;;;11.90;97.20;;;;;;1668159;29;20206;-72
2022/11/04 09:24:49;;;;;;;2.22;1.00;;;11.90;97.20;;;;;;1668367;29;20301;-71
2022/11/04 09:25:41;;;;;;;2.30;1.00;;;11.90;97.20;;;;;;1668662;29;20309;-72
2022/11/04 09:26:33;;;;;;;3.20;1.60;;;11.90;97.20;;;;;;1668514;29;20233;-72
2022/11/04 09:27:25;;;;;;;4.28;2.03;;;11.90;97.20;;;;;;1668635;29;20285;-72
2022/11/04 09:28:15;;;;;;;1.85;1.40;;;11.90;97.20;;;;;;1668630;29;20737;-71
2022/11/04 09:29:08;;;;;;;1.73;1.33;;;11.90;97.20;;;;;;1668629;29;20716;-72
2022/11/04 09:29:59;;;;;;;2.63;2.20;;;11.90;97.20;;;;;;1668693;29;20210;-72
2022/11/04 09:30:51;;;;;;;2.57;2.30;;;12.00;97.20;;;;;;1668459;29;20238;-72
2022/11/04 09:31:42;;;;;;;3.38;2.00;;;12.00;97.20;;;;;;1668712;29;20670;-71
2022/11/04 09:32:33;;;;;;;3.28;1.70;;;12.00;97.20;;;;;;1668514;29;20262;-71
2022/11/04 09:33:24;;;;;;;2.00;1.73;;;12.00;97.20;;;;;;1668629;29;20222;-71
2022/11/04 09:34:17;;;;;;;2.50;1.30;;;12.00;97.20;;;;;;1668520;29;20210;-72
2022/11/04 09:35:08;;;;;;;2.03;1.10;;;12.00;97.20;;;;;;1667748;29;20845;-71
2022/11/04 09:36:00;;;;;;;1.50;1.40;;;12.10;97.20;;;;;;1668461;29;20198;-73
2022/11/04 09:36:54;;;;;;;1.67;1.20;;;12.10;97.20;;;;;;1667966;29;20206;-72
2022/11/04 09:37:46;;;;;;;2.95;1.40;;;12.10;97.20;;;;;;1668669;29;20602;-71
2022/11/04 09:38:40;;;;;;;3.40;1.30;;;12.10;97.20;;;;;;1668493;29;20289;-72
2022/11/04 09:39:31;;;;;;;3.15;1.05;;;12.20;97.20;;;;;;1668636;29;20279;-72
2022/11/04 09:40:23;;;;;;;2.08;1.20;;;12.20;97.20;;;;;;1668536;29;20218;-73
2022/11/04 09:41:41;;;;;;;2.00;1.10;;;12.20;97.20;;;;;;1668480;29;20210;-72
2022/11/04 09:42:42;;;;;;;1.42;1.10;;;12.20;97.20;;;;;;1668633;29;20206;-72
2022/11/04 09:43:48;;;;;;;1.10;0.90;;;12.20;97.20;;;;;;1668609;29;20198;-72
2022/11/04 09:44:47;;;;;;;2.35;1.10;;;12.20;97.20;;;;;;1667795;29;20211;-72
2022/11/04 09:45:42;;;;;;;2.15;0.90;;;12.20;97.20;;;;;;1668606;29;20210;-72
2022/11/04 09:46:34;;;;;;;1.10;1.00;;;12.20;97.20;;;;;;1668390;29;20207;-72
2022/11/04 09:47:26;;;;;;;2.97;1.17;;;12.20;97.20;;;;;;1668478;29;20218;-72
2022/11/04 09:48:24;;;;;;;1.45;0.98;;;12.20;97.20;;;;;;1668514;29;20673;-72
2022/11/04 09:49:15;;;;;;;2.45;0.85;;;12.20;97.20;;;;;;1668589;29;20266;-72
2022/11/04 09:50:11;;;;;;;3.03;1.40;;;12.20;97.20;;;;;;1668649;29;20561;-72
2022/11/04 09:51:04;;;;;;;0.80;0.70;;;12.20;97.20;;;;;;1668574;29;20215;-72
2022/11/04 09:51:59;;;;;;;1.73;0.90;;;12.30;97.20;;;;;;1668399;29;20209;-72
2022/11/04 09:52:55;;;;;;;2.78;1.20;;;12.30;97.20;;;;;;1668500;29;20218;-72
2022/11/04 09:53:51;;;;;;;2.83;1.10;;;12.30;97.20;;;;;;1668562;29;20219;-72
2022/11/04 09:54:52;;;;;;;2.75;1.10;;;12.30;97.20;;;;;;1668501;29;20207;-72
2022/11/04 09:55:51;;;;;;;2.65;1.10;;;12.30;97.20;;;;;;1668351;29;20215;-72
2022/11/04 09:56:47;;;;;;;1.52;0.90;;;12.40;97.20;;;;;;1668035;29;20221;-72
2022/11/04 09:57:38;;;;;;;1.95;0.93;;;12.40;97.20;;;;;;1668456;29;20206;-72
2022/11/04 09:58:34;;;;;;;1.87;0.97;;;12.50;97.20;;;;;;1668538;29;20234;-72
2022/11/04 09:59:27;;;;;;;3.55;1.00;;;12.50;97.20;;;;;;1668620;29;20943;-72
2022/11/04 10:00:19;;;;;;;1.75;0.90;;;12.50;97.20;;;;;;1667925;29;20206;-72
2022/11/04 10:01:20;;;;;;;1.25;1.00;;;12.60;97.20;;;;;;1668463;29;20207;-72
2022/11/04 10:02:38;;;;;;;4.35;1.65;;;12.60;97.20;;;;;;1668619;29;20223;-72
2022/11/04 10:03:47;;;;;;;2.20;1.40;;;12.70;97.20;;;;;;1668504;29;20692;-73
2022/11/04 10:04:50;;;;;;;1.63;1.30;;;12.80;97.20;;;;;;1667754;29;20221;-72
2022/11/04 10:05:57;;;;;;;1.65;1.20;;;12.80;97.20;;;;;;1668473;29;20211;-72
2022/11/04 10:07:04;;;;;;;4.32;1.20;;;12.90;97.20;;;;;;1668171;29;20215;-72
2022/11/04 10:08:26;;;;;;;2.35;1.05;;;12.90;97.20;;;;;;1668526;29;20625;-72
2022/11/04 10:09:32;;;;;;;2.40;1.40;;;13.00;97.20;;;;;;1668450;29;20230;-72
2022/11/04 10:10:33;;;;;;;2.50;1.45;;;13.10;97.20;;;;;;1668478;29;20202;-72
2022/11/04 10:11:36;;;;;;;2.13;1.48;;;13.10;97.20;;;;;;1668561;29;20449;-73
2022/11/04 10:12:45;;;;;;;1.88;1.17;;;13.20;97.20;;;;;;1668480;29;20221;-73
2022/11/04 10:13:49;;;;;;;1.88;1.30;;;13.30;97.20;;;;;;1668416;29;20207;-72
2022/11/04 10:14:57;;;;;;;2.03;1.00;;;13.30;97.20;;;;;;1668285;29;20215;-72
2022/11/04 10:16:11;;;;;;;1.58;1.00;;;13.40;97.20;;;;;;1668407;29;20203;-72
2022/11/04 10:17:11;;;;;;;1.80;1.00;;;13.50;97.20;;;;;;1668362;29;20236;-72
2022/11/04 10:18:14;;;;;;;3.20;1.08;;;13.50;97.20;;;;;;1668500;29;20665;-72
2022/11/04 10:19:19;;;;;;;1.98;1.08;;;13.50;97.20;;;;;;1668446;29;20207;-72
2022/11/04 10:20:24;;;;;;;2.35;1.38;;;13.60;97.20;;;;;;1668509;29;20214;-72
2022/11/04 10:21:27;;;;;;;1.90;1.45;;;13.60;97.20;;;;;;1668358;29;20218;-72
2022/11/04 10:22:27;;;;;;;1.77;1.15;;;13.60;97.20;;;;;;1668567;29;20214;-73
2022/11/04 10:23:23;;;;;;;1.35;0.80;;;13.70;97.20;;;;;;1668471;29;20207;-72
2022/11/04 10:24:24;;;;;;;2.75;1.50;;;13.70;97.20;;;;;;1667919;29;20214;-72
2022/11/04 10:25:20;;;;;;;4.03;1.00;;;13.70;97.20;;;;;;1668084;29;20214;-72
2022/11/04 10:26:16;;;;;;;2.65;1.50;;;13.70;97.20;;;;;;1668449;29;20210;-72
2022/11/04 10:27:13;;;;;;;3.80;1.77;;;13.70;97.20;;;;;;1668162;29;20266;-73
2022/11/04 10:28:09;;;;;;;1.48;0.90;;;13.70;97.20;;;;;;1668435;29;20237;-73
2022/11/04 10:29:04;;;;;;;2.05;1.17;;;13.70;97.20;;;;;;1668331;29;20592;-72
2022/11/04 10:29:59;;;;;;;3.28;0.90;;;13.70;97.20;;;;;;1668496;29;20210;-72
2022/11/04 10:30:50;;;;;;;2.38;1.00;;;13.70;97.20;;;;;;1668251;29;20610;-73
2022/11/04 10:31:44;;;;;;;2.75;1.30;;;13.80;97.20;;;;;;1668377;29;20214;-72
2022/11/04 10:32:44;;;;;;;2.92;1.10;;;13.80;97.20;;;;;;1668281;29;20206;-72
2022/11/04 10:33:42;;;;;;;2.72;1.30;;;13.80;97.20;;;;;;1668406;29;20217;-72
2022/11/04 10:34:39;;;;;;;2.53;1.35;;;13.90;97.20;;;;;;1667855;29;20211;-72
2022/11/04 10:35:36;;;;;;;2.33;1.00;;;13.90;97.20;;;;;;1661961;29;20219;-72
2022/11/04 10:36:27;;;;;;;2.38;1.20;;;14.00;97.20;;;;;;1662021;29;20219;-72
2022/11/04 10:37:19;;;;;;;3.55;1.35;;;14.10;97.20;;;;;;1661954;29;20697;-72
2022/11/04 10:38:19;;;;;;;1.75;1.00;;;14.10;97.20;;;;;;1662166;29;20697;-72